createdAt,value
2022-10-13T00:01:57.518Z,3.10
2022-10-13T00:04:59.998Z,3.30
2022-10-13T00:08:02.587Z,3.43
2022-10-13T00:11:13.162Z,3.33
2022-10-13T00:14:15.655Z,3.80
2022-10-13T00:17:18.153Z,3.10
2022-10-13T00:20:20.717Z,3.50
2022-10-13T00:23:23.626Z,3.47
2022-10-13T00:26:27.935Z,3.10
2022-10-13T00:29:30.418Z,2.93
2022-10-13T00:32:32.897Z,3.60
2022-10-13T00:35:40.695Z,3.90
2022-10-13T00:38:43.653Z,3.50
2022-10-13T00:41:47.496Z,4.47
2022-10-13T00:45:20.602Z,3.23
2022-10-13T00:48:26.790Z,3.10
2022-10-13T00:51:33.308Z,3.10
2022-10-13T00:54:35.908Z,3.27
2022-10-13T00:57:43.644Z,2.93
2022-10-13T01:00:48.613Z,3.30
2022-10-13T01:03:59.998Z,3.20
2022-10-13T01:07:03.589Z,2.90
2022-10-13T01:10:26.073Z,4.57
2022-10-13T01:13:38.366Z,3.40
2022-10-13T01:16:51.748Z,3.60
2022-10-13T01:20:29.992Z,3.50
2022-10-13T01:24:05.755Z,3.70
2022-10-13T01:27:34.270Z,3.47
2022-10-13T01:30:44.386Z,3.17
2022-10-13T01:33:56.215Z,4.00
2022-10-13T01:37:10.550Z,3.57
2022-10-13T01:40:20.303Z,3.17
2022-10-13T01:43:27.125Z,3.37
2022-10-13T01:46:34.999Z,3.30
2022-10-13T01:49:39.086Z,4.00
2022-10-13T01:52:43.656Z,3.23
2022-10-13T01:55:54.426Z,3.47
2022-10-13T01:58:59.637Z,3.63
2022-10-13T02:02:14.907Z,3.50
2022-10-13T02:05:26.586Z,3.70
2022-10-13T02:08:38.014Z,3.77
2022-10-13T02:11:48.449Z,3.43
2022-10-13T02:14:53.170Z,3.90
2022-10-13T02:17:57.510Z,3.83
2022-10-13T02:21:01.519Z,3.80
2022-10-13T02:24:05.369Z,3.57
2022-10-13T02:27:09.159Z,3.83
2022-10-13T02:30:22.114Z,3.50
2022-10-13T02:33:25.980Z,3.43
2022-10-13T02:36:28.509Z,3.90
2022-10-13T02:39:31.153Z,4.10
2022-10-13T02:42:33.690Z,3.57
2022-10-13T02:45:36.228Z,3.63
2022-10-13T02:48:40.445Z,3.83
2022-10-13T02:51:42.947Z,3.53
2022-10-13T02:54:45.423Z,3.63
2022-10-13T02:57:48.101Z,4.33
2022-10-13T03:00:50.768Z,3.57
2022-10-13T03:03:54.694Z,3.77
2022-10-13T03:06:57.213Z,3.67
2022-10-13T03:09:59.703Z,3.40
2022-10-13T03:13:02.214Z,3.90
2022-10-13T03:16:05.233Z,4.03
2022-10-13T03:19:09.103Z,4.00
2022-10-13T03:22:14.527Z,3.60
2022-10-13T03:25:17.216Z,3.53
2022-10-13T03:28:19.823Z,3.80
2022-10-13T03:31:22.365Z,4.10
2022-10-13T03:34:26.283Z,4.13
2022-10-13T03:37:30.218Z,4.10
2022-10-13T03:40:32.992Z,3.77
2022-10-13T03:43:36.046Z,3.80
2022-10-13T03:46:38.527Z,4.07
2022-10-13T03:49:42.325Z,3.90
2022-10-13T03:52:44.805Z,3.80
2022-10-13T03:55:50.652Z,4.00
2022-10-13T03:58:54.517Z,3.77
2022-10-13T04:01:57.161Z,4.00
2022-10-13T04:05:01.039Z,4.23
2022-10-13T04:08:03.547Z,4.37
2022-10-13T04:11:08.526Z,4.30
2022-10-13T04:14:11.022Z,4.20
2022-10-13T04:17:13.509Z,3.67
2022-10-13T04:20:17.573Z,4.37
2022-10-13T04:23:20.059Z,5.90
2022-10-13T04:26:23.796Z,3.87
2022-10-13T04:29:26.306Z,4.20
2022-10-13T04:32:28.830Z,4.87
2022-10-13T04:35:32.858Z,4.57
2022-10-13T04:38:35.404Z,5.03
2022-10-13T04:41:37.869Z,4.53
2022-10-13T04:44:40.334Z,4.27
2022-10-13T04:47:42.814Z,4.10
2022-10-13T04:50:46.652Z,4.33
2022-10-13T04:53:49.357Z,4.57
2022-10-13T04:56:51.902Z,4.20
2022-10-13T04:59:54.381Z,4.93
2022-10-13T05:02:56.869Z,5.53
2022-10-13T05:06:01.580Z,4.43
2022-10-13T05:09:05.280Z,4.87
2022-10-13T05:12:07.937Z,4.50
2022-10-13T05:15:11.124Z,4.77
2022-10-13T05:18:13.627Z,4.80
2022-10-13T05:21:19.321Z,4.77
2022-10-13T05:24:30.889Z,4.23
2022-10-13T05:27:33.420Z,4.87
2022-10-13T05:30:36.486Z,4.90
2022-10-13T05:33:39.239Z,4.93
2022-10-13T05:36:43.077Z,4.40
2022-10-13T05:39:48.835Z,4.93
2022-10-13T05:42:51.938Z,4.60
2022-10-13T05:45:54.418Z,5.20
2022-10-13T05:48:56.932Z,5.00
2022-10-13T05:52:03.380Z,5.27
2022-10-13T05:55:09.206Z,5.10
2022-10-13T05:58:11.982Z,5.27
2022-10-13T06:01:17.329Z,5.10
2022-10-13T06:04:23.269Z,5.87
2022-10-13T06:07:27.261Z,4.80
2022-10-13T06:10:29.981Z,5.53
2022-10-13T06:13:33.706Z,5.67
2022-10-13T06:16:37.396Z,5.00
2022-10-13T06:19:39.861Z,5.50
2022-10-13T06:22:43.667Z,5.30
2022-10-13T06:25:49.893Z,5.07
2022-10-13T06:28:56.920Z,5.10
2022-10-13T06:32:01.713Z,5.50
2022-10-13T06:35:04.283Z,6.07
2022-10-13T06:38:09.199Z,5.53
2022-10-13T06:41:14.124Z,5.63
2022-10-13T06:44:16.586Z,6.30
2022-10-13T06:47:19.053Z,5.60
2022-10-13T06:50:21.621Z,6.37
2022-10-13T06:53:25.575Z,6.07
2022-10-13T06:56:28.074Z,5.70
2022-10-13T06:59:30.561Z,5.83
2022-10-13T07:02:33.053Z,6.50
2022-10-13T07:05:35.554Z,6.33
2022-10-13T07:08:39.352Z,6.33
2022-10-13T07:11:44.997Z,6.27
2022-10-13T07:14:48.079Z,6.73
2022-10-13T07:17:51.877Z,6.40
2022-10-13T07:20:54.347Z,6.10
2022-10-13T07:23:58.238Z,6.23
2022-10-13T07:27:05.257Z,6.60
2022-10-13T07:30:11.177Z,6.60
2022-10-13T07:33:13.658Z,7.00
2022-10-13T07:36:16.159Z,7.10
2022-10-13T07:39:19.983Z,7.57
2022-10-13T07:42:22.501Z,6.40
2022-10-13T07:45:25.261Z,6.77
2022-10-13T07:48:28.453Z,7.50
2022-10-13T07:51:30.989Z,6.27
2022-10-13T07:54:34.839Z,7.43
2022-10-13T07:57:37.588Z,7.13
2022-10-13T08:00:40.082Z,6.63
2022-10-13T08:03:45.706Z,6.90
2022-10-13T08:06:51.568Z,6.77
2022-10-13T08:09:55.676Z,7.60
2022-10-13T08:12:58.171Z,6.53
2022-10-13T08:16:02.317Z,7.03
2022-10-13T08:19:04.805Z,6.90
2022-10-13T08:22:09.712Z,7.40
2022-10-13T08:25:13.741Z,7.20
2022-10-13T08:28:19.858Z,8.27
2022-10-13T08:31:22.563Z,8.50
2022-10-13T08:34:26.229Z,7.97
2022-10-13T08:37:29.275Z,7.77
2022-10-13T08:40:33.207Z,8.20
2022-10-13T08:43:45.268Z,7.60
2022-10-13T08:47:02.711Z,8.37
2022-10-13T08:50:12.602Z,8.30
2022-10-13T08:53:23.703Z,8.70
2022-10-13T08:56:31.834Z,8.10
2022-10-13T08:59:34.401Z,7.87
2022-10-13T09:02:39.018Z,8.93
2022-10-13T09:05:47.840Z,8.50
2022-10-13T09:08:54.553Z,8.47
2022-10-13T09:11:59.522Z,8.67
2022-10-13T09:15:05.607Z,8.53
2022-10-13T09:18:14.089Z,8.93
2022-10-13T09:21:21.400Z,8.20
2022-10-13T09:24:25.936Z,9.10
2022-10-13T09:27:29.746Z,8.63
2022-10-13T09:30:35.273Z,7.87
2022-10-13T09:33:38.531Z,9.00
2022-10-13T09:36:56.442Z,8.87
2022-10-13T09:40:12.611Z,9.57
2022-10-13T09:43:30.499Z,9.33
2022-10-13T09:46:35.200Z,9.90
2022-10-13T09:49:40.526Z,9.13
2022-10-13T09:52:43.472Z,8.73
2022-10-13T09:55:48.500Z,8.37
2022-10-13T09:59:02.083Z,8.97
2022-10-13T10:02:21.363Z,8.53
2022-10-13T10:05:29.301Z,9.10
2022-10-13T10:09:01.333Z,9.30
2022-10-13T10:12:03.477Z,8.93
2022-10-13T10:15:20.585Z,9.00
2022-10-13T10:18:30.839Z,9.20
2022-10-13T10:21:39.335Z,8.83
2022-10-13T10:24:50.254Z,8.60
2022-10-13T10:28:06.204Z,8.60
2022-10-13T10:31:21.972Z,9.33
2022-10-13T10:34:33.502Z,8.97
2022-10-13T10:37:54.626Z,9.80
2022-10-13T10:41:05.121Z,8.23
2022-10-13T10:44:11.234Z,8.40
2022-10-13T10:47:23.401Z,7.87
2022-10-13T10:50:26.889Z,8.37
2022-10-13T10:53:39.002Z,8.53
2022-10-13T10:56:47.539Z,8.93
2022-10-13T10:59:58.549Z,8.67
2022-10-13T11:03:10.558Z,8.33
2022-10-13T11:06:34.913Z,7.80
2022-10-13T11:10:16.961Z,7.60
2022-10-13T11:13:20.912Z,8.13
2022-10-13T11:16:33.126Z,8.70
2022-10-13T11:19:38.390Z,7.00
2022-10-13T11:22:40.877Z,7.33
2022-10-13T11:25:44.587Z,7.57
2022-10-13T11:28:48.741Z,7.10
2022-10-13T11:31:54.972Z,7.83
2022-10-13T11:35:01.485Z,7.10
2022-10-13T11:38:29.272Z,7.37
2022-10-13T11:41:42.450Z,7.30
2022-10-13T11:44:54.754Z,7.60
2022-10-13T11:48:24.794Z,6.97
2022-10-13T11:51:40.677Z,7.53
2022-10-13T11:54:50.777Z,8.60
2022-10-13T11:58:08.958Z,7.40
2022-10-13T12:01:15.246Z,6.03
2022-10-13T12:04:22.813Z,7.37
2022-10-13T12:07:29.194Z,7.13
2022-10-13T12:10:34.799Z,7.33
2022-10-13T12:13:37.383Z,7.13
2022-10-13T12:16:52.634Z,6.50
2022-10-13T12:19:56.951Z,7.43
2022-10-13T12:23:00.815Z,7.20
2022-10-13T12:26:03.597Z,7.83
2022-10-13T12:29:12.669Z,7.40
2022-10-13T12:32:20.979Z,6.47
2022-10-13T12:35:26.917Z,7.47
2022-10-13T12:38:30.856Z,7.07
2022-10-13T12:41:36.117Z,7.27
2022-10-13T12:44:39.048Z,6.83
2022-10-13T12:47:49.183Z,6.23
2022-10-13T12:50:51.879Z,6.90
2022-10-13T12:53:56.056Z,7.10
2022-10-13T12:57:01.456Z,7.37
2022-10-13T13:00:05.654Z,6.77
2022-10-13T13:03:08.505Z,6.50
2022-10-13T13:06:23.325Z,5.90
2022-10-13T13:09:28.588Z,5.43
2022-10-13T13:12:31.429Z,6.13
2022-10-13T13:15:36.228Z,6.13
2022-10-13T13:18:41.692Z,6.17
2022-10-13T13:21:44.245Z,6.07
2022-10-13T13:24:50.247Z,4.70
2022-10-13T13:27:53.449Z,5.43
2022-10-13T13:30:55.934Z,5.67
2022-10-13T13:33:58.446Z,4.87
2022-10-13T13:37:03.190Z,4.67
2022-10-13T13:40:09.257Z,5.30
2022-10-13T13:43:11.903Z,4.63
2022-10-13T13:46:17.912Z,4.60
2022-10-13T13:49:20.397Z,4.80
2022-10-13T13:52:23.847Z,4.87
2022-10-13T13:55:29.557Z,4.30
2022-10-13T13:58:32.094Z,5.13
2022-10-13T14:01:34.694Z,4.90
2022-10-13T14:04:37.200Z,4.97
2022-10-13T14:07:39.724Z,4.93
2022-10-13T14:10:43.567Z,4.43
2022-10-13T14:13:46.347Z,4.97
2022-10-13T14:16:48.812Z,4.50
2022-10-13T14:19:51.329Z,4.47
2022-10-13T14:22:53.840Z,5.10
2022-10-13T14:25:57.644Z,4.50
2022-10-13T14:29:00.429Z,4.70
2022-10-13T14:32:03.455Z,3.87
2022-10-13T14:35:07.169Z,4.57
2022-10-13T14:38:11.198Z,4.60
2022-10-13T14:41:16.941Z,4.70
2022-10-13T14:44:19.694Z,3.80
2022-10-13T14:47:22.626Z,4.00
2022-10-13T14:50:25.468Z,3.80
2022-10-13T14:53:28.326Z,5.07
2022-10-13T14:56:32.358Z,4.30
2022-10-13T14:59:34.888Z,5.20
2022-10-13T15:02:37.357Z,4.40
2022-10-13T15:05:39.838Z,4.53
2022-10-13T15:08:42.822Z,4.03
2022-10-13T15:11:47.777Z,4.37
2022-10-13T15:14:50.278Z,3.90
2022-10-13T15:17:52.750Z,4.03
2022-10-13T15:20:55.678Z,3.90
2022-10-13T15:23:58.311Z,4.00
2022-10-13T15:27:02.178Z,4.27
2022-10-13T15:30:05.202Z,3.85
2022-10-13T15:33:07.693Z,4.13
2022-10-13T15:36:10.212Z,3.87
2022-10-13T15:39:12.680Z,4.03
2022-10-13T15:42:16.519Z,4.60
2022-10-13T15:45:19.013Z,4.33
2022-10-13T15:48:21.539Z,4.37
2022-10-13T15:51:26.682Z,4.83
2022-10-13T15:54:29.174Z,5.50
2022-10-13T15:57:33.062Z,5.10
2022-10-13T16:00:35.665Z,4.73
2022-10-13T16:03:38.920Z,4.50
2022-10-13T16:06:41.405Z,4.30
2022-10-13T16:09:43.873Z,4.40
2022-10-13T16:12:49.779Z,4.03
2022-10-13T16:16:02.458Z,5.30
2022-10-13T16:19:04.950Z,5.50
2022-10-13T16:22:07.541Z,5.10
2022-10-13T16:25:10.988Z,5.70
2022-10-13T16:28:15.389Z,5.63
2022-10-13T16:31:18.193Z,5.70
2022-10-13T16:34:22.707Z,5.97
2022-10-13T16:37:25.229Z,5.23
2022-10-13T16:40:28.083Z,5.33
2022-10-13T16:43:32.526Z,5.23
2022-10-13T16:46:35.025Z,5.27
2022-10-13T16:49:37.543Z,5.40
2022-10-13T16:52:40.054Z,5.43
2022-10-13T16:55:42.928Z,5.43
2022-10-13T16:58:47.046Z,5.27
2022-10-13T17:01:49.697Z,5.10
2022-10-13T17:04:52.306Z,6.30
2022-10-13T17:07:54.838Z,6.37
2022-10-13T17:10:58.425Z,5.70
2022-10-13T17:14:03.067Z,6.40
2022-10-13T17:17:05.650Z,6.50
2022-10-13T17:20:08.742Z,6.90
2022-10-13T17:23:11.234Z,7.27
2022-10-13T17:26:15.323Z,8.33
2022-10-13T17:29:19.255Z,7.40
2022-10-13T17:32:22.003Z,6.93
2022-10-13T17:35:24.493Z,6.40
2022-10-13T17:38:27.033Z,6.37
2022-10-13T17:41:29.555Z,7.13
2022-10-13T17:44:33.726Z,6.77
2022-10-13T17:47:36.235Z,6.70
2022-10-13T17:50:38.806Z,7.13
2022-10-13T17:53:42.584Z,6.60
2022-10-13T17:56:46.132Z,6.37
2022-10-13T17:59:50.111Z,6.13
2022-10-13T18:02:52.769Z,6.10
2022-10-13T18:05:55.321Z,6.63
2022-10-13T18:08:58.003Z,6.20
2022-10-13T18:12:00.526Z,5.90
2022-10-13T18:15:04.794Z,5.77
2022-10-13T18:18:07.542Z,5.70
2022-10-13T18:21:12.184Z,6.00
2022-10-13T18:24:14.737Z,5.70
2022-10-13T18:27:17.240Z,5.60
2022-10-13T18:30:22.470Z,5.60
2022-10-13T18:33:25.202Z,6.20
2022-10-13T18:36:30.164Z,6.50
2022-10-13T18:39:34.284Z,6.27
2022-10-13T18:42:36.794Z,6.57
2022-10-13T18:45:40.616Z,6.23
2022-10-13T18:48:43.138Z,6.27
2022-10-13T18:51:45.934Z,7.20
2022-10-13T18:54:50.610Z,6.53
2022-10-13T18:57:53.370Z,5.73
2022-10-13T19:01:01.328Z,6.17
2022-10-13T19:04:04.985Z,6.73
2022-10-13T19:07:07.509Z,7.73
2022-10-13T19:10:10.674Z,7.77
2022-10-13T19:13:13.169Z,7.37
2022-10-13T19:16:19.133Z,6.80
2022-10-13T19:19:21.612Z,6.47
2022-10-13T19:22:24.140Z,7.63
2022-10-13T19:25:26.642Z,7.50
2022-10-13T19:28:29.157Z,7.40
2022-10-13T19:31:34.745Z,6.67
2022-10-13T19:34:37.247Z,7.47
2022-10-13T19:37:40.451Z,7.67
2022-10-13T19:40:43.740Z,7.77
2022-10-13T19:43:46.270Z,7.10
2022-10-13T19:46:51.451Z,7.73
2022-10-13T19:49:53.988Z,8.23
2022-10-13T19:52:56.588Z,8.27
2022-10-13T19:55:59.242Z,8.70
2022-10-13T19:59:04.182Z,9.87
2022-10-13T20:02:08.045Z,10.20
2022-10-13T20:05:10.702Z,10.03
2022-10-13T20:08:14.125Z,9.40
2022-10-13T20:11:23.320Z,11.73
2022-10-13T20:14:28.270Z,10.50
2022-10-13T20:17:32.110Z,10.83
2022-10-13T20:20:34.870Z,11.27
2022-10-13T20:23:37.889Z,12.27
2022-10-13T20:26:40.924Z,11.87
2022-10-13T20:29:43.432Z,11.77
2022-10-13T20:32:47.248Z,11.10
2022-10-13T20:35:49.752Z,11.37
2022-10-13T20:38:52.526Z,12.70
2022-10-13T20:41:55.018Z,12.37
2022-10-13T20:44:57.869Z,11.80
2022-10-13T20:48:01.694Z,12.70
2022-10-13T20:51:06.170Z,11.70
2022-10-13T20:54:08.779Z,11.27
2022-10-13T20:57:11.477Z,10.27
2022-10-13T21:00:14.485Z,11.30
2022-10-13T21:03:19.409Z,11.90
2022-10-13T21:06:23.559Z,12.90
2022-10-13T21:09:26.794Z,11.97
2022-10-13T21:12:29.284Z,13.10
2022-10-13T21:15:31.922Z,12.27
2022-10-13T21:18:35.767Z,10.97
2022-10-13T21:21:38.685Z,11.40
2022-10-13T21:24:41.280Z,12.07
2022-10-13T21:27:43.749Z,11.50
2022-10-13T21:30:46.259Z,11.07
2022-10-13T21:33:50.860Z,12.17
2022-10-13T21:36:53.399Z,12.27
2022-10-13T21:39:55.889Z,11.53
2022-10-13T21:42:58.375Z,11.07
2022-10-13T21:46:09.264Z,10.33
2022-10-13T21:49:13.125Z,10.70
2022-10-13T21:52:16.002Z,10.43
2022-10-13T21:55:18.489Z,11.20
2022-10-13T21:58:20.948Z,10.13
2022-10-13T22:01:24.601Z,12.03
2022-10-13T22:04:28.407Z,10.57
2022-10-13T22:07:30.940Z,11.30
2022-10-13T22:10:35.238Z,11.37
2022-10-13T22:13:37.950Z,10.50
2022-10-13T22:16:42.963Z,10.60
2022-10-13T22:19:46.802Z,12.10
2022-10-13T22:22:49.285Z,11.00
2022-10-13T22:25:54.063Z,12.03
2022-10-13T22:28:57.322Z,12.87
2022-10-13T22:32:00.282Z,12.83
2022-10-13T22:35:04.470Z,12.67
2022-10-13T22:38:06.954Z,13.10
2022-10-13T22:41:10.308Z,13.07
2022-10-13T22:44:13.439Z,14.00
2022-10-13T22:47:15.916Z,13.07
2022-10-13T22:50:20.027Z,13.40
2022-10-13T22:53:22.566Z,12.43
2022-10-13T22:56:27.119Z,12.60
2022-10-13T22:59:29.608Z,12.50
2022-10-13T23:02:32.132Z,11.60
2022-10-13T23:05:35.943Z,13.00
2022-10-13T23:08:38.950Z,14.03
2022-10-13T23:11:41.726Z,13.73
2022-10-13T23:14:44.220Z,13.43
2022-10-13T23:17:46.717Z,12.90
2022-10-13T23:20:54.445Z,12.00
2022-10-13T23:24:00.839Z,13.63
2022-10-13T23:27:03.330Z,11.83
2022-10-13T23:30:07.168Z,12.73
2022-10-13T23:33:09.674Z,13.00
2022-10-13T23:36:17.250Z,12.87
2022-10-13T23:39:20.817Z,12.77
2022-10-13T23:42:23.327Z,13.93
2022-10-13T23:45:25.794Z,15.03
2022-10-13T23:48:28.609Z,13.50
2022-10-13T23:51:33.052Z,13.60
2022-10-13T23:54:35.571Z,13.63
2022-10-13T23:57:38.072Z,13.47
